sensor_id;sensor_type;location;lat;lon;timestamp;P1;durP1;ratioP1;P2;durP2;ratioP2
36423;SDS011;22458;45.328;9.514;2022-11-11T00:01:53;15.02;;;13.30;;
36423;SDS011;22458;45.328;9.514;2022-11-11T00:04:37;16.73;;;13.18;;
36423;SDS011;22458;45.328;9.514;2022-11-11T00:07:21;14.15;;;12.75;;
36423;SDS011;22458;45.328;9.514;2022-11-11T00:10:05;13.65;;;12.25;;
36423;SDS011;22458;45.328;9.514;2022-11-11T00:12:50;14.02;;;12.63;;
36423;SDS011;22458;45.328;9.514;2022-11-11T00:15:35;14.60;;;12.98;;
36423;SDS011;22458;45.328;9.514;2022-11-11T00:18:24;13.88;;;12.45;;
36423;SDS011;22458;45.328;9.514;2022-11-11T00:21:27;13.15;;;11.80;;
36423;SDS011;22458;45.328;9.514;2022-11-11T00:24:25;16.35;;;12.73;;
36423;SDS011;22458;45.328;9.514;2022-11-11T00:27:29;14.38;;;12.88;;
36423;SDS011;22458;45.328;9.514;2022-11-11T00:30:13;15.45;;;13.88;;
36423;SDS011;22458;45.328;9.514;2022-11-11T00:32:58;14.75;;;13.23;;
36423;SDS011;22458;45.328;9.514;2022-11-11T00:35:43;13.77;;;12.38;;
36423;SDS011;22458;45.328;9.514;2022-11-11T00:38:36;14.23;;;12.82;;
36423;SDS011;22458;45.328;9.514;2022-11-11T00:41:29;13.90;;;12.45;;
36423;SDS011;22458;45.328;9.514;2022-11-11T00:44:14;19.83;;;13.75;;
36423;SDS011;22458;45.328;9.514;2022-11-11T00:46:58;15.48;;;13.05;;
36423;SDS011;22458;45.328;9.514;2022-11-11T00:50:02;15.85;;;13.98;;
36423;SDS011;22458;45.328;9.514;2022-11-11T00:53:17;16.13;;;13.48;;
36423;SDS011;22458;45.328;9.514;2022-11-11T00:56:05;24.35;;;15.45;;
36423;SDS011;22458;45.328;9.514;2022-11-11T00:58:50;18.55;;;14.85;;
36423;SDS011;22458;45.328;9.514;2022-11-11T01:01:35;16.85;;;15.05;;
36423;SDS011;22458;45.328;9.514;2022-11-11T01:04:21;15.48;;;13.80;;
36423;SDS011;22458;45.328;9.514;2022-11-11T01:07:05;16.38;;;14.63;;
36423;SDS011;22458;45.328;9.514;2022-11-11T01:09:49;17.52;;;14.07;;
36423;SDS011;22458;45.328;9.514;2022-11-11T01:12:34;18.23;;;14.30;;
36423;SDS011;22458;45.328;9.514;2022-11-11T01:15:19;18.98;;;13.75;;
36423;SDS011;22458;45.328;9.514;2022-11-11T01:18:03;21.25;;;15.70;;
36423;SDS011;22458;45.328;9.514;2022-11-11T01:20:56;23.48;;;16.25;;
36423;SDS011;22458;45.328;9.514;2022-11-11T01:23:41;25.23;;;14.85;;
36423;SDS011;22458;45.328;9.514;2022-11-11T01:26:28;21.02;;;15.30;;
36423;SDS011;22458;45.328;9.514;2022-11-11T01:29:14;22.80;;;15.38;;
36423;SDS011;22458;45.328;9.514;2022-11-11T01:31:58;20.50;;;15.77;;
36423;SDS011;22458;45.328;9.514;2022-11-11T01:34:42;21.58;;;14.95;;
36423;SDS011;22458;45.328;9.514;2022-11-11T01:37:27;30.92;;;17.77;;
36423;SDS011;22458;45.328;9.514;2022-11-11T01:40:11;21.73;;;15.57;;
36423;SDS011;22458;45.328;9.514;2022-11-11T01:45:59;22.60;;;15.43;;
36423;SDS011;22458;45.328;9.514;2022-11-11T01:48:47;19.58;;;15.43;;
36423;SDS011;22458;45.328;9.514;2022-11-11T01:55:01;19.70;;;15.35;;
36423;SDS011;22458;45.328;9.514;2022-11-11T01:58:04;21.02;;;15.35;;
36423;SDS011;22458;45.328;9.514;2022-11-11T02:00:51;17.90;;;14.40;;
36423;SDS011;22458;45.328;9.514;2022-11-11T02:03:38;18.83;;;14.75;;
36423;SDS011;22458;45.328;9.514;2022-11-11T02:06:23;18.38;;;14.63;;
36423;SDS011;22458;45.328;9.514;2022-11-11T02:09:10;18.73;;;14.90;;
36423;SDS011;22458;45.328;9.514;2022-11-11T02:11:55;19.13;;;14.90;;
36423;SDS011;22458;45.328;9.514;2022-11-11T02:15:01;17.05;;;14.25;;
36423;SDS011;22458;45.328;9.514;2022-11-11T02:17:45;17.30;;;14.00;;
36423;SDS011;22458;45.328;9.514;2022-11-11T02:20:36;16.42;;;13.55;;
36423;SDS011;22458;45.328;9.514;2022-11-11T02:26:16;17.92;;;13.75;;
36423;SDS011;22458;45.328;9.514;2022-11-11T02:29:01;16.83;;;13.60;;
36423;SDS011;22458;45.328;9.514;2022-11-11T02:31:51;17.73;;;13.75;;
36423;SDS011;22458;45.328;9.514;2022-11-11T02:34:35;19.65;;;13.75;;
36423;SDS011;22458;45.328;9.514;2022-11-11T02:37:20;17.30;;;13.93;;
36423;SDS011;22458;45.328;9.514;2022-11-11T02:40:06;19.00;;;14.18;;
36423;SDS011;22458;45.328;9.514;2022-11-11T02:42:54;15.50;;;12.70;;
36423;SDS011;22458;45.328;9.514;2022-11-11T02:45:38;19.88;;;13.77;;
36423;SDS011;22458;45.328;9.514;2022-11-11T02:48:22;22.00;;;14.32;;
36423;SDS011;22458;45.328;9.514;2022-11-11T02:51:09;18.80;;;14.10;;
36423;SDS011;22458;45.328;9.514;2022-11-11T02:53:54;26.30;;;14.57;;
36423;SDS011;22458;45.328;9.514;2022-11-11T02:56:41;18.38;;;14.07;;
36423;SDS011;22458;45.328;9.514;2022-11-11T02:59:44;18.23;;;13.27;;
36423;SDS011;22458;45.328;9.514;2022-11-11T03:02:28;16.77;;;13.70;;
36423;SDS011;22458;45.328;9.514;2022-11-11T03:05:13;16.75;;;13.25;;
36423;SDS011;22458;45.328;9.514;2022-11-11T03:07:57;18.42;;;13.55;;
36423;SDS011;22458;45.328;9.514;2022-11-11T03:10:41;20.85;;;13.18;;
36423;SDS011;22458;45.328;9.514;2022-11-11T03:13:26;14.40;;;11.88;;
36423;SDS011;22458;45.328;9.514;2022-11-11T03:16:10;17.00;;;13.45;;
36423;SDS011;22458;45.328;9.514;2022-11-11T03:19:14;16.88;;;14.02;;
36423;SDS011;22458;45.328;9.514;2022-11-11T03:21:58;22.83;;;13.48;;
36423;SDS011;22458;45.328;9.514;2022-11-11T03:24:42;16.33;;;12.75;;
36423;SDS011;22458;45.328;9.514;2022-11-11T03:27:45;17.50;;;13.52;;
36423;SDS011;22458;45.328;9.514;2022-11-11T03:30:29;15.43;;;12.70;;
36423;SDS011;22458;45.328;9.514;2022-11-11T03:33:15;19.38;;;14.32;;
36423;SDS011;22458;45.328;9.514;2022-11-11T03:36:00;17.00;;;13.27;;
36423;SDS011;22458;45.328;9.514;2022-11-11T03:38:44;18.40;;;13.95;;
36423;SDS011;22458;45.328;9.514;2022-11-11T03:41:29;19.23;;;14.82;;
36423;SDS011;22458;45.328;9.514;2022-11-11T03:44:13;18.92;;;14.40;;
36423;SDS011;22458;45.328;9.514;2022-11-11T03:46:57;19.48;;;13.85;;
36423;SDS011;22458;45.328;9.514;2022-11-11T03:49:41;16.35;;;13.82;;
36423;SDS011;22458;45.328;9.514;2022-11-11T03:52:28;18.20;;;12.77;;
36423;SDS011;22458;45.328;9.514;2022-11-11T03:55:12;18.27;;;13.73;;
36423;SDS011;22458;45.328;9.514;2022-11-11T03:57:57;16.17;;;13.63;;
36423;SDS011;22458;45.328;9.514;2022-11-11T04:00:41;18.58;;;13.70;;
36423;SDS011;22458;45.328;9.514;2022-11-11T04:03:25;18.98;;;14.60;;
36423;SDS011;22458;45.328;9.514;2022-11-11T04:06:28;16.98;;;14.45;;
36423;SDS011;22458;45.328;9.514;2022-11-11T04:09:31;20.73;;;14.55;;
36423;SDS011;22458;45.328;9.514;2022-11-11T04:12:34;21.58;;;13.68;;
36423;SDS011;22458;45.328;9.514;2022-11-11T04:15:39;21.08;;;14.82;;
36423;SDS011;22458;45.328;9.514;2022-11-11T04:18:42;18.30;;;14.73;;
36423;SDS011;22458;45.328;9.514;2022-11-11T04:21:45;22.55;;;15.25;;
36423;SDS011;22458;45.328;9.514;2022-11-11T04:24:29;21.85;;;14.95;;
36423;SDS011;22458;45.328;9.514;2022-11-11T04:27:33;19.73;;;14.32;;
36423;SDS011;22458;45.328;9.514;2022-11-11T04:30:17;19.40;;;15.57;;
36423;SDS011;22458;45.328;9.514;2022-11-11T04:33:01;23.02;;;16.02;;
36423;SDS011;22458;45.328;9.514;2022-11-11T04:35:49;23.85;;;15.38;;
36423;SDS011;22458;45.328;9.514;2022-11-11T04:38:33;21.55;;;15.60;;
36423;SDS011;22458;45.328;9.514;2022-11-11T04:41:36;20.13;;;15.50;;
36423;SDS011;22458;45.328;9.514;2022-11-11T04:44:21;21.45;;;15.70;;
36423;SDS011;22458;45.328;9.514;2022-11-11T04:47:24;20.70;;;15.25;;
36423;SDS011;22458;45.328;9.514;2022-11-11T04:50:08;21.35;;;15.52;;
36423;SDS011;22458;45.328;9.514;2022-11-11T04:52:53;18.30;;;14.60;;
36423;SDS011;22458;45.328;9.514;2022-11-11T04:55:38;18.58;;;15.27;;
36423;SDS011;22458;45.328;9.514;2022-11-11T04:58:41;19.58;;;14.70;;
36423;SDS011;22458;45.328;9.514;2022-11-11T05:01:26;23.20;;;16.33;;
36423;SDS011;22458;45.328;9.514;2022-11-11T05:04:29;23.63;;;17.58;;
36423;SDS011;22458;45.328;9.514;2022-11-11T05:07:14;17.83;;;14.57;;
36423;SDS011;22458;45.328;9.514;2022-11-11T05:10:17;20.88;;;16.20;;
36423;SDS011;22458;45.328;9.514;2022-11-11T05:13:01;20.85;;;15.98;;
36423;SDS011;22458;45.328;9.514;2022-11-11T05:16:07;18.27;;;14.95;;
36423;SDS011;22458;45.328;9.514;2022-11-11T05:19:15;17.02;;;14.43;;
36423;SDS011;22458;45.328;9.514;2022-11-11T05:22:25;19.13;;;13.43;;
36423;SDS011;22458;45.328;9.514;2022-11-11T05:25:15;18.98;;;14.82;;
36423;SDS011;22458;45.328;9.514;2022-11-11T05:28:08;16.33;;;13.48;;
36423;SDS011;22458;45.328;9.514;2022-11-11T05:30:53;16.60;;;13.38;;
36423;SDS011;22458;45.328;9.514;2022-11-11T05:33:37;17.58;;;13.02;;
36423;SDS011;22458;45.328;9.514;2022-11-11T05:36:21;15.73;;;13.63;;
36423;SDS011;22458;45.328;9.514;2022-11-11T05:39:06;13.85;;;12.30;;
36423;SDS011;22458;45.328;9.514;2022-11-11T05:41:50;15.15;;;12.88;;
36423;SDS011;22458;45.328;9.514;2022-11-11T05:44:34;16.40;;;12.68;;
36423;SDS011;22458;45.328;9.514;2022-11-11T05:47:19;14.45;;;11.52;;
36423;SDS011;22458;45.328;9.514;2022-11-11T05:50:03;13.20;;;11.55;;
36423;SDS011;22458;45.328;9.514;2022-11-11T05:52:48;13.25;;;11.30;;
36423;SDS011;22458;45.328;9.514;2022-11-11T05:55:33;16.00;;;12.27;;
36423;SDS011;22458;45.328;9.514;2022-11-11T05:58:17;17.08;;;13.60;;
36423;SDS011;22458;45.328;9.514;2022-11-11T06:01:02;14.52;;;11.95;;
36423;SDS011;22458;45.328;9.514;2022-11-11T06:03:47;16.02;;;12.73;;
36423;SDS011;22458;45.328;9.514;2022-11-11T06:06:32;17.88;;;13.30;;
36423;SDS011;22458;45.328;9.514;2022-11-11T06:09:18;17.42;;;12.73;;
36423;SDS011;22458;45.328;9.514;2022-11-11T06:12:02;18.88;;;13.90;;
36423;SDS011;22458;45.328;9.514;2022-11-11T06:14:46;17.27;;;13.05;;
36423;SDS011;22458;45.328;9.514;2022-11-11T06:17:32;15.60;;;11.45;;
36423;SDS011;22458;45.328;9.514;2022-11-11T06:20:16;15.52;;;12.10;;
36423;SDS011;22458;45.328;9.514;2022-11-11T06:23:01;17.20;;;12.25;;
36423;SDS011;22458;45.328;9.514;2022-11-11T06:25:47;14.38;;;11.85;;
36423;SDS011;22458;45.328;9.514;2022-11-11T06:28:51;16.35;;;12.43;;
36423;SDS011;22458;45.328;9.514;2022-11-11T06:31:37;16.55;;;13.98;;
36423;SDS011;22458;45.328;9.514;2022-11-11T06:34:21;14.82;;;12.38;;
36423;SDS011;22458;45.328;9.514;2022-11-11T06:37:05;14.77;;;11.90;;
36423;SDS011;22458;45.328;9.514;2022-11-11T06:39:49;14.32;;;12.52;;
36423;SDS011;22458;45.328;9.514;2022-11-11T06:42:35;15.05;;;12.27;;
36423;SDS011;22458;45.328;9.514;2022-11-11T06:45:20;16.52;;;12.20;;
36423;SDS011;22458;45.328;9.514;2022-11-11T06:48:05;14.52;;;12.18;;
36423;SDS011;22458;45.328;9.514;2022-11-11T06:50:50;14.98;;;12.85;;
36423;SDS011;22458;45.328;9.514;2022-11-11T06:53:35;13.93;;;12.25;;
36423;SDS011;22458;45.328;9.514;2022-11-11T06:56:19;14.68;;;12.50;;
36423;SDS011;22458;45.328;9.514;2022-11-11T06:59:03;15.63;;;12.43;;
36423;SDS011;22458;45.328;9.514;2022-11-11T07:01:49;14.88;;;12.20;;
36423;SDS011;22458;45.328;9.514;2022-11-11T07:04:33;12.95;;;11.57;;
36423;SDS011;22458;45.328;9.514;2022-11-11T07:07:17;15.65;;;12.52;;
36423;SDS011;22458;45.328;9.514;2022-11-11T07:10:02;14.95;;;12.57;;
36423;SDS011;22458;45.328;9.514;2022-11-11T07:12:50;14.15;;;12.65;;
36423;SDS011;22458;45.328;9.514;2022-11-11T07:15:35;14.35;;;12.85;;
36423;SDS011;22458;45.328;9.514;2022-11-11T07:18:19;14.82;;;12.15;;
36423;SDS011;22458;45.328;9.514;2022-11-11T07:21:04;16.15;;;12.68;;
36423;SDS011;22458;45.328;9.514;2022-11-11T07:23:48;15.10;;;13.45;;
36423;SDS011;22458;45.328;9.514;2022-11-11T07:26:33;16.15;;;12.98;;
36423;SDS011;22458;45.328;9.514;2022-11-11T07:29:17;16.63;;;12.98;;
36423;SDS011;22458;45.328;9.514;2022-11-11T07:32:02;15.10;;;12.65;;
36423;SDS011;22458;45.328;9.514;2022-11-11T07:34:46;17.05;;;13.00;;
36423;SDS011;22458;45.328;9.514;2022-11-11T07:37:32;17.17;;;13.27;;
36423;SDS011;22458;45.328;9.514;2022-11-11T07:40:20;17.63;;;13.88;;
36423;SDS011;22458;45.328;9.514;2022-11-11T07:43:04;14.75;;;12.02;;
36423;SDS011;22458;45.328;9.514;2022-11-11T07:45:48;16.67;;;11.95;;
36423;SDS011;22458;45.328;9.514;2022-11-11T07:48:33;13.55;;;11.35;;
36423;SDS011;22458;45.328;9.514;2022-11-11T07:51:17;13.88;;;11.50;;
36423;SDS011;22458;45.328;9.514;2022-11-11T07:54:01;17.13;;;12.50;;
36423;SDS011;22458;45.328;9.514;2022-11-11T07:56:45;17.33;;;13.13;;
36423;SDS011;22458;45.328;9.514;2022-11-11T07:59:29;18.10;;;13.70;;
36423;SDS011;22458;45.328;9.514;2022-11-11T08:02:13;18.90;;;13.35;;
36423;SDS011;22458;45.328;9.514;2022-11-11T08:04:57;21.63;;;13.70;;
36423;SDS011;22458;45.328;9.514;2022-11-11T08:07:42;23.15;;;15.07;;
36423;SDS011;22458;45.328;9.514;2022-11-11T08:10:26;27.30;;;16.20;;
36423;SDS011;22458;45.328;9.514;2022-11-11T08:13:10;25.65;;;14.55;;
36423;SDS011;22458;45.328;9.514;2022-11-11T08:16:13;24.35;;;15.57;;
36423;SDS011;22458;45.328;9.514;2022-11-11T08:18:59;25.55;;;17.00;;
36423;SDS011;22458;45.328;9.514;2022-11-11T08:21:43;34.90;;;17.05;;
36423;SDS011;22458;45.328;9.514;2022-11-11T08:24:27;27.30;;;17.05;;
36423;SDS011;22458;45.328;9.514;2022-11-11T08:27:12;28.77;;;16.13;;
36423;SDS011;22458;45.328;9.514;2022-11-11T08:29:57;31.23;;;17.38;;
36423;SDS011;22458;45.328;9.514;2022-11-11T08:32:41;32.42;;;17.75;;
36423;SDS011;22458;45.328;9.514;2022-11-11T08:35:25;30.48;;;17.50;;
36423;SDS011;22458;45.328;9.514;2022-11-11T08:38:10;29.88;;;17.73;;
36423;SDS011;22458;45.328;9.514;2022-11-11T08:40:58;32.75;;;16.45;;
36423;SDS011;22458;45.328;9.514;2022-11-11T08:43:44;33.00;;;17.83;;
36423;SDS011;22458;45.328;9.514;2022-11-11T08:46:28;31.45;;;17.60;;
36423;SDS011;22458;45.328;9.514;2022-11-11T08:49:12;35.00;;;18.55;;
36423;SDS011;22458;45.328;9.514;2022-11-11T08:51:56;35.97;;;19.17;;
36423;SDS011;22458;45.328;9.514;2022-11-11T08:54:40;29.63;;;16.75;;
36423;SDS011;22458;45.328;9.514;2022-11-11T08:57:24;31.33;;;16.95;;
36423;SDS011;22458;45.328;9.514;2022-11-11T09:00:09;27.92;;;17.05;;
36423;SDS011;22458;45.328;9.514;2022-11-11T09:02:58;27.95;;;17.00;;
36423;SDS011;22458;45.328;9.514;2022-11-11T09:05:44;28.40;;;16.77;;
36423;SDS011;22458;45.328;9.514;2022-11-11T09:08:29;25.75;;;16.35;;
36423;SDS011;22458;45.328;9.514;2022-11-11T09:11:13;30.98;;;18.05;;
36423;SDS011;22458;45.328;9.514;2022-11-11T09:13:58;28.15;;;17.95;;
36423;SDS011;22458;45.328;9.514;2022-11-11T09:16:42;28.10;;;17.42;;
36423;SDS011;22458;45.328;9.514;2022-11-11T09:19:26;28.13;;;18.70;;
36423;SDS011;22458;45.328;9.514;2022-11-11T09:22:10;30.60;;;18.15;;
36423;SDS011;22458;45.328;9.514;2022-11-11T09:24:54;29.65;;;19.00;;
36423;SDS011;22458;45.328;9.514;2022-11-11T09:27:38;29.58;;;18.02;;
36423;SDS011;22458;45.328;9.514;2022-11-11T09:30:24;27.17;;;18.17;;
36423;SDS011;22458;45.328;9.514;2022-11-11T09:33:09;34.05;;;19.25;;
36423;SDS011;22458;45.328;9.514;2022-11-11T09:35:56;31.38;;;18.35;;
36423;SDS011;22458;45.328;9.514;2022-11-11T09:38:41;34.03;;;19.67;;
36423;SDS011;22458;45.328;9.514;2022-11-11T09:53:01;41.10;;;23.27;;
36423;SDS011;22458;45.328;9.514;2022-11-11T09:58:42;40.85;;;22.15;;
36423;SDS011;22458;45.328;9.514;2022-11-11T10:01:35;44.97;;;22.83;;
36423;SDS011;22458;45.328;9.514;2022-11-11T10:05:07;41.10;;;22.15;;
36423;SDS011;22458;45.328;9.514;2022-11-11T10:07:50;44.40;;;21.73;;
36423;SDS011;22458;45.328;9.514;2022-11-11T10:10:45;48.88;;;23.05;;
36423;SDS011;22458;45.328;9.514;2022-11-11T10:13:35;43.38;;;22.38;;
36423;SDS011;22458;45.328;9.514;2022-11-11T10:22:50;48.05;;;24.80;;
36423;SDS011;22458;45.328;9.514;2022-11-11T10:25:45;51.97;;;25.77;;
36423;SDS011;22458;45.328;9.514;2022-11-11T10:28:39;50.75;;;25.75;;
36423;SDS011;22458;45.328;9.514;2022-11-11T10:31:26;51.65;;;25.65;;
36423;SDS011;22458;45.328;9.514;2022-11-11T10:34:11;51.90;;;25.95;;
36423;SDS011;22458;45.328;9.514;2022-11-11T10:36:58;45.65;;;23.70;;
36423;SDS011;22458;45.328;9.514;2022-11-11T10:39:57;46.03;;;24.20;;
36423;SDS011;22458;45.328;9.514;2022-11-11T10:42:49;48.70;;;23.85;;
36423;SDS011;22458;45.328;9.514;2022-11-11T10:45:42;48.58;;;23.48;;
36423;SDS011;22458;45.328;9.514;2022-11-11T10:51:46;42.80;;;22.35;;
36423;SDS011;22458;45.328;9.514;2022-11-11T10:54:56;42.85;;;22.77;;
36423;SDS011;22458;45.328;9.514;2022-11-11T10:58:08;41.85;;;23.25;;
36423;SDS011;22458;45.328;9.514;2022-11-11T11:01:00;38.75;;;21.13;;
36423;SDS011;22458;45.328;9.514;2022-11-11T11:03:49;38.42;;;23.08;;
36423;SDS011;22458;45.328;9.514;2022-11-11T11:06:43;38.25;;;22.17;;
36423;SDS011;22458;45.328;9.514;2022-11-11T11:12:37;43.28;;;22.38;;
36423;SDS011;22458;45.328;9.514;2022-11-11T11:15:26;39.83;;;22.13;;
36423;SDS011;22458;45.328;9.514;2022-11-11T11:18:12;37.92;;;22.30;;
36423;SDS011;22458;45.328;9.514;2022-11-11T11:23:45;37.95;;;21.38;;
36423;SDS011;22458;45.328;9.514;2022-11-11T11:26:43;36.20;;;22.60;;
36423;SDS011;22458;45.328;9.514;2022-11-11T11:32:31;37.85;;;21.02;;
36423;SDS011;22458;45.328;9.514;2022-11-11T11:35:35;34.10;;;20.30;;
36423;SDS011;22458;45.328;9.514;2022-11-11T11:38:25;36.53;;;20.50;;
36423;SDS011;22458;45.328;9.514;2022-11-11T11:41:43;29.75;;;17.70;;
36423;SDS011;22458;45.328;9.514;2022-11-11T11:44:35;31.33;;;19.88;;
36423;SDS011;22458;45.328;9.514;2022-11-11T11:47:28;32.63;;;18.48;;
36423;SDS011;22458;45.328;9.514;2022-11-11T11:59:31;31.17;;;18.20;;
36423;SDS011;22458;45.328;9.514;2022-11-11T12:14:36;30.98;;;18.58;;
36423;SDS011;22458;45.328;9.514;2022-11-11T12:17:29;30.98;;;17.67;;
36423;SDS011;22458;45.328;9.514;2022-11-11T12:20:23;32.13;;;18.08;;
36423;SDS011;22458;45.328;9.514;2022-11-11T12:34:47;27.30;;;16.20;;
36423;SDS011;22458;45.328;9.514;2022-11-11T12:46:53;27.98;;;17.02;;
36423;SDS011;22458;45.328;9.514;2022-11-11T12:56:04;30.02;;;16.23;;
36423;SDS011;22458;45.328;9.514;2022-11-11T12:58:54;25.92;;;16.25;;
36423;SDS011;22458;45.328;9.514;2022-11-11T13:05:00;27.90;;;16.92;;
36423;SDS011;22458;45.328;9.514;2022-11-11T13:08:00;27.35;;;16.23;;
36423;SDS011;22458;45.328;9.514;2022-11-11T13:10:57;27.80;;;17.45;;
36423;SDS011;22458;45.328;9.514;2022-11-11T13:16:52;23.58;;;15.70;;
36423;SDS011;22458;45.328;9.514;2022-11-11T13:22:38;27.02;;;15.82;;
36423;SDS011;22458;45.328;9.514;2022-11-11T13:25:24;25.10;;;15.60;;
36423;SDS011;22458;45.328;9.514;2022-11-11T13:31:14;23.63;;;16.17;;
36423;SDS011;22458;45.328;9.514;2022-11-11T13:34:12;28.00;;;16.40;;
36423;SDS011;22458;45.328;9.514;2022-11-11T13:36:57;22.83;;;16.27;;
36423;SDS011;22458;45.328;9.514;2022-11-11T13:39:46;25.38;;;15.93;;
36423;SDS011;22458;45.328;9.514;2022-11-11T13:42:35;25.50;;;16.20;;
36423;SDS011;22458;45.328;9.514;2022-11-11T13:45:28;24.50;;;16.08;;
36423;SDS011;22458;45.328;9.514;2022-11-11T13:48:25;23.27;;;16.52;;
36423;SDS011;22458;45.328;9.514;2022-11-11T13:51:21;25.23;;;15.60;;
36423;SDS011;22458;45.328;9.514;2022-11-11T13:59:57;22.45;;;15.70;;
36423;SDS011;22458;45.328;9.514;2022-11-11T14:03:56;21.80;;;14.95;;
36423;SDS011;22458;45.328;9.514;2022-11-11T14:08:59;21.95;;;14.55;;
36423;SDS011;22458;45.328;9.514;2022-11-11T14:11:44;22.05;;;14.95;;
36423;SDS011;22458;45.328;9.514;2022-11-11T14:17:19;24.23;;;15.63;;
36423;SDS011;22458;45.328;9.514;2022-11-11T14:20:32;21.88;;;14.65;;
36423;SDS011;22458;45.328;9.514;2022-11-11T14:26:20;22.85;;;16.52;;
36423;SDS011;22458;45.328;9.514;2022-11-11T14:35:21;20.00;;;14.35;;
36423;SDS011;22458;45.328;9.514;2022-11-11T14:42:03;23.98;;;14.95;;
36423;SDS011;22458;45.328;9.514;2022-11-11T14:51:45;22.08;;;14.95;;
36423;SDS011;22458;45.328;9.514;2022-11-11T15:03:46;21.05;;;15.20;;
36423;SDS011;22458;45.328;9.514;2022-11-11T15:09:34;27.05;;;16.48;;
36423;SDS011;22458;45.328;9.514;2022-11-11T15:12:52;23.95;;;15.88;;
36423;SDS011;22458;45.328;9.514;2022-11-11T15:15:44;24.73;;;15.98;;
36423;SDS011;22458;45.328;9.514;2022-11-11T15:19:17;24.55;;;15.90;;
36423;SDS011;22458;45.328;9.514;2022-11-11T15:31:40;27.08;;;15.93;;
36423;SDS011;22458;45.328;9.514;2022-11-11T15:34:52;25.23;;;16.33;;
36423;SDS011;22458;45.328;9.514;2022-11-11T15:38:11;27.30;;;16.00;;
36423;SDS011;22458;45.328;9.514;2022-11-11T15:40:58;24.02;;;15.80;;
36423;SDS011;22458;45.328;9.514;2022-11-11T15:43:44;24.30;;;16.35;;
36423;SDS011;22458;45.328;9.514;2022-11-11T15:46:29;27.63;;;17.25;;
36423;SDS011;22458;45.328;9.514;2022-11-11T15:55:17;23.38;;;16.05;;
36423;SDS011;22458;45.328;9.514;2022-11-11T15:58:09;26.67;;;16.35;;
36423;SDS011;22458;45.328;9.514;2022-11-11T16:01:14;26.23;;;17.20;;
36423;SDS011;22458;45.328;9.514;2022-11-11T16:03:59;28.85;;;18.15;;
36423;SDS011;22458;45.328;9.514;2022-11-11T16:06:43;23.65;;;16.30;;
36423;SDS011;22458;45.328;9.514;2022-11-11T16:09:29;25.33;;;17.25;;
36423;SDS011;22458;45.328;9.514;2022-11-11T16:12:21;24.17;;;16.38;;
36423;SDS011;22458;45.328;9.514;2022-11-11T16:15:08;25.55;;;16.63;;
36423;SDS011;22458;45.328;9.514;2022-11-11T16:17:54;25.42;;;16.08;;
36423;SDS011;22458;45.328;9.514;2022-11-11T16:21:04;26.13;;;17.33;;
36423;SDS011;22458;45.328;9.514;2022-11-11T16:23:51;22.85;;;15.52;;
36423;SDS011;22458;45.328;9.514;2022-11-11T16:26:36;24.92;;;15.05;;
36423;SDS011;22458;45.328;9.514;2022-11-11T16:29:21;25.10;;;15.90;;
36423;SDS011;22458;45.328;9.514;2022-11-11T16:32:17;26.25;;;16.60;;
36423;SDS011;22458;45.328;9.514;2022-11-11T16:38:34;26.05;;;15.95;;
36423;SDS011;22458;45.328;9.514;2022-11-11T16:41:29;26.88;;;15.50;;
36423;SDS011;22458;45.328;9.514;2022-11-11T16:44:36;28.85;;;16.35;;
36423;SDS011;22458;45.328;9.514;2022-11-11T16:50:25;25.70;;;16.23;;
36423;SDS011;22458;45.328;9.514;2022-11-11T16:53:22;25.63;;;16.45;;
36423;SDS011;22458;45.328;9.514;2022-11-11T16:56:20;25.50;;;16.77;;
36423;SDS011;22458;45.328;9.514;2022-11-11T16:59:14;30.27;;;17.30;;
36423;SDS011;22458;45.328;9.514;2022-11-11T17:02:23;26.45;;;17.17;;
36423;SDS011;22458;45.328;9.514;2022-11-11T17:05:08;26.70;;;15.55;;
36423;SDS011;22458;45.328;9.514;2022-11-11T17:07:52;26.50;;;16.15;;
36423;SDS011;22458;45.328;9.514;2022-11-11T17:10:37;23.40;;;16.15;;
36423;SDS011;22458;45.328;9.514;2022-11-11T17:13:23;28.08;;;16.92;;
36423;SDS011;22458;45.328;9.514;2022-11-11T17:16:08;24.88;;;15.50;;
36423;SDS011;22458;45.328;9.514;2022-11-11T17:18:54;25.58;;;16.23;;
36423;SDS011;22458;45.328;9.514;2022-11-11T17:21:41;33.60;;;18.25;;
36423;SDS011;22458;45.328;9.514;2022-11-11T17:24:25;26.48;;;17.98;;
36423;SDS011;22458;45.328;9.514;2022-11-11T17:27:16;27.80;;;17.38;;
36423;SDS011;22458;45.328;9.514;2022-11-11T17:30:00;23.58;;;15.85;;
36423;SDS011;22458;45.328;9.514;2022-11-11T17:32:46;29.45;;;17.42;;
36423;SDS011;22458;45.328;9.514;2022-11-11T17:35:31;27.60;;;16.88;;
36423;SDS011;22458;45.328;9.514;2022-11-11T17:38:16;25.92;;;16.05;;
36423;SDS011;22458;45.328;9.514;2022-11-11T17:41:00;23.08;;;15.73;;
36423;SDS011;22458;45.328;9.514;2022-11-11T17:43:44;24.25;;;16.73;;
36423;SDS011;22458;45.328;9.514;2022-11-11T17:46:29;21.73;;;14.20;;
36423;SDS011;22458;45.328;9.514;2022-11-11T17:49:13;18.33;;;13.38;;
36423;SDS011;22458;45.328;9.514;2022-11-11T17:51:59;19.80;;;13.13;;
36423;SDS011;22458;45.328;9.514;2022-11-11T17:54:43;18.85;;;12.23;;
36423;SDS011;22458;45.328;9.514;2022-11-11T17:57:28;18.23;;;11.40;;
36423;SDS011;22458;45.328;9.514;2022-11-11T18:00:12;15.07;;;10.82;;
36423;SDS011;22458;45.328;9.514;2022-11-11T18:02:57;19.70;;;11.30;;
36423;SDS011;22458;45.328;9.514;2022-11-11T18:05:41;18.52;;;11.90;;
36423;SDS011;22458;45.328;9.514;2022-11-11T18:08:25;15.13;;;10.95;;
36423;SDS011;22458;45.328;9.514;2022-11-11T18:11:11;20.77;;;13.68;;
36423;SDS011;22458;45.328;9.514;2022-11-11T18:13:55;18.13;;;12.45;;
36423;SDS011;22458;45.328;9.514;2022-11-11T18:16:39;17.35;;;12.35;;
36423;SDS011;22458;45.328;9.514;2022-11-11T18:19:23;21.05;;;13.55;;
36423;SDS011;22458;45.328;9.514;2022-11-11T18:22:08;21.55;;;14.05;;
36423;SDS011;22458;45.328;9.514;2022-11-11T18:24:52;19.35;;;13.85;;
36423;SDS011;22458;45.328;9.514;2022-11-11T18:27:36;22.63;;;14.65;;
36423;SDS011;22458;45.328;9.514;2022-11-11T18:30:20;17.38;;;12.07;;
36423;SDS011;22458;45.328;9.514;2022-11-11T18:33:05;17.23;;;11.75;;
36423;SDS011;22458;45.328;9.514;2022-11-11T18:35:49;17.02;;;11.85;;
36423;SDS011;22458;45.328;9.514;2022-11-11T18:38:34;16.60;;;10.73;;
36423;SDS011;22458;45.328;9.514;2022-11-11T18:41:19;12.80;;;8.82;;
36423;SDS011;22458;45.328;9.514;2022-11-11T18:44:04;15.40;;;10.52;;
36423;SDS011;22458;45.328;9.514;2022-11-11T18:46:48;16.02;;;10.10;;
36423;SDS011;22458;45.328;9.514;2022-11-11T18:49:33;16.38;;;10.18;;
36423;SDS011;22458;45.328;9.514;2022-11-11T18:52:17;14.35;;;10.25;;
36423;SDS011;22458;45.328;9.514;2022-11-11T18:55:01;16.95;;;12.02;;
36423;SDS011;22458;45.328;9.514;2022-11-11T18:57:46;18.08;;;11.23;;
36423;SDS011;22458;45.328;9.514;2022-11-11T19:00:30;23.48;;;14.90;;
36423;SDS011;22458;45.328;9.514;2022-11-11T19:03:14;17.73;;;13.15;;
36423;SDS011;22458;45.328;9.514;2022-11-11T19:05:59;18.08;;;11.15;;
36423;SDS011;22458;45.328;9.514;2022-11-11T19:08:45;13.50;;;10.32;;
36423;SDS011;22458;45.328;9.514;2022-11-11T19:11:30;14.57;;;10.48;;
36423;SDS011;22458;45.328;9.514;2022-11-11T19:14:16;15.52;;;10.00;;
36423;SDS011;22458;45.328;9.514;2022-11-11T19:17:00;13.88;;;9.75;;